sensor_id;sensor_type;location;lat;lon;timestamp;temperature;humidity
39751;DHT22;37579;51.074;17.004;2023-02-22T00:00:38;23.20;78.70
39751;DHT22;37579;51.074;17.004;2023-02-22T00:05:57;23.20;78.60
39751;DHT22;37579;51.074;17.004;2023-02-22T00:08:28;23.20;78.60
39751;DHT22;37579;51.074;17.004;2023-02-22T00:11:03;23.20;78.60
39751;DHT22;37579;51.074;17.004;2023-02-22T00:13:29;23.20;78.60
39751;DHT22;37579;51.074;17.004;2023-02-22T00:15:58;23.20;78.60
39751;DHT22;37579;51.074;17.004;2023-02-22T00:18:25;23.20;78.60
39751;DHT22;37579;51.074;17.004;2023-02-22T00:20:58;23.20;78.50
39751;DHT22;37579;51.074;17.004;2023-02-22T00:23:26;23.20;78.50
39751;DHT22;37579;51.074;17.004;2023-02-22T00:25:53;23.20;78.50
39751;DHT22;37579;51.074;17.004;2023-02-22T00:28:19;23.20;78.50
39751;DHT22;37579;51.074;17.004;2023-02-22T00:30:45;23.10;78.60
39751;DHT22;37579;51.074;17.004;2023-02-22T00:33:14;23.20;78.50
39751;DHT22;37579;51.074;17.004;2023-02-22T00:35:40;23.20;78.50
39751;DHT22;37579;51.074;17.004;2023-02-22T00:38:12;23.20;78.60
39751;DHT22;37579;51.074;17.004;2023-02-22T00:40:38;23.20;78.50
39751;DHT22;37579;51.074;17.004;2023-02-22T00:43:05;23.20;78.40
39751;DHT22;37579;51.074;17.004;2023-02-22T00:45:33;23.20;78.30
39751;DHT22;37579;51.074;17.004;2023-02-22T00:48:00;23.20;78.40
39751;DHT22;37579;51.074;17.004;2023-02-22T00:50:28;23.20;78.20
39751;DHT22;37579;51.074;17.004;2023-02-22T00:52:56;23.10;78.30
39751;DHT22;37579;51.074;17.004;2023-02-22T00:55:29;23.20;78.50
39751;DHT22;37579;51.074;17.004;2023-02-22T00:57:56;23.20;78.30
39751;DHT22;37579;51.074;17.004;2023-02-22T01:00:27;23.20;78.20
39751;DHT22;37579;51.074;17.004;2023-02-22T01:02:54;23.20;78.30
39751;DHT22;37579;51.074;17.004;2023-02-22T01:05:27;23.10;78.30
39751;DHT22;37579;51.074;17.004;2023-02-22T01:07:55;23.20;78.20
39751;DHT22;37579;51.074;17.004;2023-02-22T01:10:22;23.20;78.20
39751;DHT22;37579;51.074;17.004;2023-02-22T01:12:49;23.20;78.20
39751;DHT22;37579;51.074;17.004;2023-02-22T01:15:18;23.20;78.40
39751;DHT22;37579;51.074;17.004;2023-02-22T01:17:48;23.10;78.20
39751;DHT22;37579;51.074;17.004;2023-02-22T01:20:16;23.20;78.20
39751;DHT22;37579;51.074;17.004;2023-02-22T01:22:44;23.20;78.20
39751;DHT22;37579;51.074;17.004;2023-02-22T01:25:14;23.20;78.20
39751;DHT22;37579;51.074;17.004;2023-02-22T01:27:40;23.10;78.10
39751;DHT22;37579;51.074;17.004;2023-02-22T01:30:08;23.10;78.90
39751;DHT22;37579;51.074;17.004;2023-02-22T01:32:39;23.10;78.10
39751;DHT22;37579;51.074;17.004;2023-02-22T01:35:09;23.10;78.10
39751;DHT22;37579;51.074;17.004;2023-02-22T01:37:35;23.10;78.10
39751;DHT22;37579;51.074;17.004;2023-02-22T01:40:03;23.10;78.20
39751;DHT22;37579;51.074;17.004;2023-02-22T01:42:29;23.10;78.00
39751;DHT22;37579;51.074;17.004;2023-02-22T01:48:10;23.10;78.00
39751;DHT22;37579;51.074;17.004;2023-02-22T01:50:53;23.10;78.00
39751;DHT22;37579;51.074;17.004;2023-02-22T01:53:24;23.10;77.80
39751;DHT22;37579;51.074;17.004;2023-02-22T01:55:53;23.10;77.90
39751;DHT22;37579;51.074;17.004;2023-02-22T01:58:20;23.10;77.90
39751;DHT22;37579;51.074;17.004;2023-02-22T02:00:47;23.10;77.80
39751;DHT22;37579;51.074;17.004;2023-02-22T02:03:18;23.10;78.10
39751;DHT22;37579;51.074;17.004;2023-02-22T02:05:47;23.10;77.90
39751;DHT22;37579;51.074;17.004;2023-02-22T02:10:57;23.10;77.90
39751;DHT22;37579;51.074;17.004;2023-02-22T02:13:25;23.10;77.90
39751;DHT22;37579;51.074;17.004;2023-02-22T02:15:54;23.10;78.10
39751;DHT22;37579;51.074;17.004;2023-02-22T02:18:21;23.10;78.00
39751;DHT22;37579;51.074;17.004;2023-02-22T02:22:06;23.10;77.90
39751;DHT22;37579;51.074;17.004;2023-02-22T02:27:15;23.10;78.10
39751;DHT22;37579;51.074;17.004;2023-02-22T02:32:38;23.10;78.10
39751;DHT22;37579;51.074;17.004;2023-02-22T02:38:01;23.10;78.00
39751;DHT22;37579;51.074;17.004;2023-02-22T02:40:44;23.10;78.00
39751;DHT22;37579;51.074;17.004;2023-02-22T02:46:00;23.10;77.80
39751;DHT22;37579;51.074;17.004;2023-02-22T02:48:30;23.10;77.90
39751;DHT22;37579;51.074;17.004;2023-02-22T02:50:59;23.10;77.90
39751;DHT22;37579;51.074;17.004;2023-02-22T02:53:37;23.10;77.90
39751;DHT22;37579;51.074;17.004;2023-02-22T02:56:05;23.10;78.00
39751;DHT22;37579;51.074;17.004;2023-02-22T02:58:32;23.10;77.90
39751;DHT22;37579;51.074;17.004;2023-02-22T03:01:00;23.10;77.90
39751;DHT22;37579;51.074;17.004;2023-02-22T03:23:36;23.10;77.50
39751;DHT22;37579;51.074;17.004;2023-02-22T03:26:12;23.00;77.60
39751;DHT22;37579;51.074;17.004;2023-02-22T03:28:42;23.10;78.30
39751;DHT22;37579;51.074;17.004;2023-02-22T03:31:14;23.10;77.60
39751;DHT22;37579;51.074;17.004;2023-02-22T03:33:47;23.10;77.40
39751;DHT22;37579;51.074;17.004;2023-02-22T03:36:20;23.10;77.50
39751;DHT22;37579;51.074;17.004;2023-02-22T03:38:52;23.10;77.50
39751;DHT22;37579;51.074;17.004;2023-02-22T03:41:22;23.10;77.40
39751;DHT22;37579;51.074;17.004;2023-02-22T03:43:57;23.10;77.40
39751;DHT22;37579;51.074;17.004;2023-02-22T03:46:25;23.10;77.50
39751;DHT22;37579;51.074;17.004;2023-02-22T03:49:20;23.10;77.50
39751;DHT22;37579;51.074;17.004;2023-02-22T03:51:48;23.00;77.40
39751;DHT22;37579;51.074;17.004;2023-02-22T03:54:14;23.00;77.40
39751;DHT22;37579;51.074;17.004;2023-02-22T03:56:53;23.10;77.40
39751;DHT22;37579;51.074;17.004;2023-02-22T03:59:21;23.00;77.50
39751;DHT22;37579;51.074;17.004;2023-02-22T04:01:51;23.00;77.50
39751;DHT22;37579;51.074;17.004;2023-02-22T04:04:17;23.00;77.40
39751;DHT22;37579;51.074;17.004;2023-02-22T04:06:44;23.00;77.40
39751;DHT22;37579;51.074;17.004;2023-02-22T04:09:12;23.00;77.40
39751;DHT22;37579;51.074;17.004;2023-02-22T04:11:38;23.00;77.30
39751;DHT22;37579;51.074;17.004;2023-02-22T04:14:04;23.00;77.40
39751;DHT22;37579;51.074;17.004;2023-02-22T04:16:30;23.00;77.30
39751;DHT22;37579;51.074;17.004;2023-02-22T04:18:56;23.10;77.40
39751;DHT22;37579;51.074;17.004;2023-02-22T04:21:22;23.00;77.30
39751;DHT22;37579;51.074;17.004;2023-02-22T04:23:49;23.10;77.40
39751;DHT22;37579;51.074;17.004;2023-02-22T04:26:16;23.00;77.30
39751;DHT22;37579;51.074;17.004;2023-02-22T04:28:47;23.10;77.10
39751;DHT22;37579;51.074;17.004;2023-02-22T04:31:16;23.10;77.20
39751;DHT22;37579;51.074;17.004;2023-02-22T04:33:42;23.10;77.20
39751;DHT22;37579;51.074;17.004;2023-02-22T04:36:11;23.10;77.20
39751;DHT22;37579;51.074;17.004;2023-02-22T04:38:41;23.00;77.10
39751;DHT22;37579;51.074;17.004;2023-02-22T04:41:07;23.00;77.20
39751;DHT22;37579;51.074;17.004;2023-02-22T04:43:33;23.00;77.20
39751;DHT22;37579;51.074;17.004;2023-02-22T04:46:19;23.00;77.20
39751;DHT22;37579;51.074;17.004;2023-02-22T04:48:45;23.00;77.10
39751;DHT22;37579;51.074;17.004;2023-02-22T04:51:12;23.00;77.10
39751;DHT22;37579;51.074;17.004;2023-02-22T04:53:45;23.00;77.20
39751;DHT22;37579;51.074;17.004;2023-02-22T04:56:11;23.10;77.10
39751;DHT22;37579;51.074;17.004;2023-02-22T04:58:37;23.00;77.00
39751;DHT22;37579;51.074;17.004;2023-02-22T05:01:03;23.00;77.00
39751;DHT22;37579;51.074;17.004;2023-02-22T05:03:29;23.00;77.00
39751;DHT22;37579;51.074;17.004;2023-02-22T05:05:54;23.00;77.00
39751;DHT22;37579;51.074;17.004;2023-02-22T05:08:20;23.00;77.00
39751;DHT22;37579;51.074;17.004;2023-02-22T05:10:46;23.00;77.20
39751;DHT22;37579;51.074;17.004;2023-02-22T05:13:12;23.10;77.10
39751;DHT22;37579;51.074;17.004;2023-02-22T05:15:38;23.10;77.20
39751;DHT22;37579;51.074;17.004;2023-02-22T05:18:04;23.10;77.00
39751;DHT22;37579;51.074;17.004;2023-02-22T05:20:32;23.20;77.00
39751;DHT22;37579;51.074;17.004;2023-02-22T05:23:00;23.20;76.70
39751;DHT22;37579;51.074;17.004;2023-02-22T05:25:26;23.20;76.60
39751;DHT22;37579;51.074;17.004;2023-02-22T05:27:58;23.30;76.50
39751;DHT22;37579;51.074;17.004;2023-02-22T05:30:27;23.30;76.50
39751;DHT22;37579;51.074;17.004;2023-02-22T05:32:53;23.20;76.30
39751;DHT22;37579;51.074;17.004;2023-02-22T05:35:20;23.30;76.50
39751;DHT22;37579;51.074;17.004;2023-02-22T05:37:46;23.30;76.30
39751;DHT22;37579;51.074;17.004;2023-02-22T05:40:13;23.30;76.30
39751;DHT22;37579;51.074;17.004;2023-02-22T05:42:40;23.30;76.30
39751;DHT22;37579;51.074;17.004;2023-02-22T05:45:06;23.40;76.20
39751;DHT22;37579;51.074;17.004;2023-02-22T05:47:33;23.40;76.10
39751;DHT22;37579;51.074;17.004;2023-02-22T05:49:59;23.40;76.20
39751;DHT22;37579;51.074;17.004;2023-02-22T05:52:26;23.40;76.00
39751;DHT22;37579;51.074;17.004;2023-02-22T05:54:52;23.40;76.10
39751;DHT22;37579;51.074;17.004;2023-02-22T05:57:18;23.40;76.10
39751;DHT22;37579;51.074;17.004;2023-02-22T05:59:43;23.40;76.20
39751;DHT22;37579;51.074;17.004;2023-02-22T06:02:09;23.40;76.20
39751;DHT22;37579;51.074;17.004;2023-02-22T06:04:35;23.40;76.40
39751;DHT22;37579;51.074;17.004;2023-02-22T06:07:01;23.40;76.60
39751;DHT22;37579;51.074;17.004;2023-02-22T06:09:27;23.40;76.90
39751;DHT22;37579;51.074;17.004;2023-02-22T06:11:52;23.50;77.40
39751;DHT22;37579;51.074;17.004;2023-02-22T06:14:18;23.50;77.60
39751;DHT22;37579;51.074;17.004;2023-02-22T06:16:51;23.50;77.30
39751;DHT22;37579;51.074;17.004;2023-02-22T06:19:17;23.50;77.20
39751;DHT22;37579;51.074;17.004;2023-02-22T06:21:50;23.50;77.10
39751;DHT22;37579;51.074;17.004;2023-02-22T06:24:16;23.60;77.00
39751;DHT22;37579;51.074;17.004;2023-02-22T06:26:42;23.60;76.90
39751;DHT22;37579;51.074;17.004;2023-02-22T06:29:08;23.60;77.00
39751;DHT22;37579;51.074;17.004;2023-02-22T06:31:34;23.60;77.10
39751;DHT22;37579;51.074;17.004;2023-02-22T06:34:01;23.60;77.10
39751;DHT22;37579;51.074;17.004;2023-02-22T06:36:27;23.50;77.20
39751;DHT22;37579;51.074;17.004;2023-02-22T06:38:54;23.50;77.20
39751;DHT22;37579;51.074;17.004;2023-02-22T06:41:20;23.50;77.10
39751;DHT22;37579;51.074;17.004;2023-02-22T06:43:47;23.50;77.10
39751;DHT22;37579;51.074;17.004;2023-02-22T06:46:13;23.60;77.10
39751;DHT22;37579;51.074;17.004;2023-02-22T06:48:39;23.60;77.00
39751;DHT22;37579;51.074;17.004;2023-02-22T06:51:07;23.70;77.80
39751;DHT22;37579;51.074;17.004;2023-02-22T06:53:34;23.70;77.00
39751;DHT22;37579;51.074;17.004;2023-02-22T06:56:00;23.80;77.20
39751;DHT22;37579;51.074;17.004;2023-02-22T06:58:27;23.80;77.20
39751;DHT22;37579;51.074;17.004;2023-02-22T07:00:53;23.80;77.20
39751;DHT22;37579;51.074;17.004;2023-02-22T07:03:19;23.80;77.30
39751;DHT22;37579;51.074;17.004;2023-02-22T07:05:46;23.90;77.30
39751;DHT22;37579;51.074;17.004;2023-02-22T07:08:12;24.00;77.50
39751;DHT22;37579;51.074;17.004;2023-02-22T07:10:38;24.00;77.30
39751;DHT22;37579;51.074;17.004;2023-02-22T07:13:05;24.00;77.80
39751;DHT22;37579;51.074;17.004;2023-02-22T07:15:33;24.10;77.10
39751;DHT22;37579;51.074;17.004;2023-02-22T07:17:59;24.10;77.20
39751;DHT22;37579;51.074;17.004;2023-02-22T07:20:27;24.10;77.10
39751;DHT22;37579;51.074;17.004;2023-02-22T07:22:54;24.10;77.10
39751;DHT22;37579;51.074;17.004;2023-02-22T07:25:20;24.10;77.10
39751;DHT22;37579;51.074;17.004;2023-02-22T07:27:48;24.10;77.10
39751;DHT22;37579;51.074;17.004;2023-02-22T07:30:26;24.10;77.40
39751;DHT22;37579;51.074;17.004;2023-02-22T07:32:56;24.10;77.90
39751;DHT22;37579;51.074;17.004;2023-02-22T07:35:25;24.10;77.40
39751;DHT22;37579;51.074;17.004;2023-02-22T07:37:52;24.10;77.40
39751;DHT22;37579;51.074;17.004;2023-02-22T07:40:18;24.00;77.30
39751;DHT22;37579;51.074;17.004;2023-02-22T07:42:52;24.00;77.30
39751;DHT22;37579;51.074;17.004;2023-02-22T07:45:19;24.00;77.00
39751;DHT22;37579;51.074;17.004;2023-02-22T07:47:45;24.00;77.00
39751;DHT22;37579;51.074;17.004;2023-02-22T07:50:16;24.00;77.00
39751;DHT22;37579;51.074;17.004;2023-02-22T07:52:50;24.00;76.90
39751;DHT22;37579;51.074;17.004;2023-02-22T07:55:19;23.90;77.00
39751;DHT22;37579;51.074;17.004;2023-02-22T07:57:46;24.00;77.00
39751;DHT22;37579;51.074;17.004;2023-02-22T08:00:15;24.00;77.00
39751;DHT22;37579;51.074;17.004;2023-02-22T08:02:41;24.00;77.10
39751;DHT22;37579;51.074;17.004;2023-02-22T08:05:09;24.00;77.30
39751;DHT22;37579;51.074;17.004;2023-02-22T08:07:38;24.00;77.20
39751;DHT22;37579;51.074;17.004;2023-02-22T08:10:06;24.00;77.30
39751;DHT22;37579;51.074;17.004;2023-02-22T08:12:36;24.00;76.90
39751;DHT22;37579;51.074;17.004;2023-02-22T08:15:07;24.00;77.20
39751;DHT22;37579;51.074;17.004;2023-02-22T08:17:33;24.00;77.00
39751;DHT22;37579;51.074;17.004;2023-02-22T08:19:59;24.00;77.20
39751;DHT22;37579;51.074;17.004;2023-02-22T08:22:25;24.00;77.30
39751;DHT22;37579;51.074;17.004;2023-02-22T08:24:53;24.00;77.10
39751;DHT22;37579;51.074;17.004;2023-02-22T08:27:26;24.00;77.10
39751;DHT22;37579;51.074;17.004;2023-02-22T08:29:53;23.90;76.90
39751;DHT22;37579;51.074;17.004;2023-02-22T08:32:19;24.00;76.90
39751;DHT22;37579;51.074;17.004;2023-02-22T08:34:46;24.00;77.00
39751;DHT22;37579;51.074;17.004;2023-02-22T08:37:13;24.10;76.90
39751;DHT22;37579;51.074;17.004;2023-02-22T08:39:39;24.00;76.90
39751;DHT22;37579;51.074;17.004;2023-02-22T08:42:06;24.00;76.90
39751;DHT22;37579;51.074;17.004;2023-02-22T08:44:34;24.00;76.90
39751;DHT22;37579;51.074;17.004;2023-02-22T08:47:00;24.00;76.90
39751;DHT22;37579;51.074;17.004;2023-02-22T08:49:26;24.00;77.00
39751;DHT22;37579;51.074;17.004;2023-02-22T08:51:52;24.00;76.90
39751;DHT22;37579;51.074;17.004;2023-02-22T08:54:17;24.00;77.00
39751;DHT22;37579;51.074;17.004;2023-02-22T08:56:43;24.00;77.10
39751;DHT22;37579;51.074;17.004;2023-02-22T08:59:09;24.00;76.90
39751;DHT22;37579;51.074;17.004;2023-02-22T09:01:35;24.10;77.00
39751;DHT22;37579;51.074;17.004;2023-02-22T09:04:01;24.00;77.00
39751;DHT22;37579;51.074;17.004;2023-02-22T09:06:28;24.10;77.20
39751;DHT22;37579;51.074;17.004;2023-02-22T09:09:31;24.00;77.10
39751;DHT22;37579;51.074;17.004;2023-02-22T09:12:09;24.20;77.00
39751;DHT22;37579;51.074;17.004;2023-02-22T09:14:34;24.10;76.80
39751;DHT22;37579;51.074;17.004;2023-02-22T09:17:01;24.10;76.80
39751;DHT22;37579;51.074;17.004;2023-02-22T09:19:27;24.10;76.70
39751;DHT22;37579;51.074;17.004;2023-02-22T09:21:56;24.10;76.70
39751;DHT22;37579;51.074;17.004;2023-02-22T09:24:23;24.10;76.60
39751;DHT22;37579;51.074;17.004;2023-02-22T09:26:49;24.20;76.60
39751;DHT22;37579;51.074;17.004;2023-02-22T09:29:20;24.20;76.60
39751;DHT22;37579;51.074;17.004;2023-02-22T09:31:48;24.20;76.70
39751;DHT22;37579;51.074;17.004;2023-02-22T09:34:15;24.20;76.80
39751;DHT22;37579;51.074;17.004;2023-02-22T09:36:45;24.20;76.80
39751;DHT22;37579;51.074;17.004;2023-02-22T09:39:11;24.20;76.70
39751;DHT22;37579;51.074;17.004;2023-02-22T09:47:14;24.20;76.70
39751;DHT22;37579;51.074;17.004;2023-02-22T09:49:55;24.20;77.00
39751;DHT22;37579;51.074;17.004;2023-02-22T09:52:38;24.20;76.70
39751;DHT22;37579;51.074;17.004;2023-02-22T09:57:36;24.20;76.80
39751;DHT22;37579;51.074;17.004;2023-02-22T10:05:25;24.20;76.90
39751;DHT22;37579;51.074;17.004;2023-02-22T10:08:00;24.30;76.80
39751;DHT22;37579;51.074;17.004;2023-02-22T10:10:35;24.30;76.70
39751;DHT22;37579;51.074;17.004;2023-02-22T10:13:27;24.30;77.00
39751;DHT22;37579;51.074;17.004;2023-02-22T10:26:26;24.30;77.10
39751;DHT22;37579;51.074;17.004;2023-02-22T10:29:02;24.30;77.00
39751;DHT22;37579;51.074;17.004;2023-02-22T10:31:35;24.30;77.00
39751;DHT22;37579;51.074;17.004;2023-02-22T10:34:24;24.30;77.10
39751;DHT22;37579;51.074;17.004;2023-02-22T10:36:56;24.40;77.10
39751;DHT22;37579;51.074;17.004;2023-02-22T10:39:32;24.30;77.00
39751;DHT22;37579;51.074;17.004;2023-02-22T10:42:02;24.30;77.10
39751;DHT22;37579;51.074;17.004;2023-02-22T10:44:35;24.30;77.10
39751;DHT22;37579;51.074;17.004;2023-02-22T10:47:04;24.30;76.90
39751;DHT22;37579;51.074;17.004;2023-02-22T10:49:41;24.30;76.90
39751;DHT22;37579;51.074;17.004;2023-02-22T10:52:37;24.40;77.00
39751;DHT22;37579;51.074;17.004;2023-02-22T10:55:03;24.30;77.00
39751;DHT22;37579;51.074;17.004;2023-02-22T10:57:37;24.30;77.00
39751;DHT22;37579;51.074;17.004;2023-02-22T11:00:32;24.30;77.00
39751;DHT22;37579;51.074;17.004;2023-02-22T11:03:22;24.30;76.90
39751;DHT22;37579;51.074;17.004;2023-02-22T11:05:48;24.30;76.80
39751;DHT22;37579;51.074;17.004;2023-02-22T11:08:29;24.30;76.70
39751;DHT22;37579;51.074;17.004;2023-02-22T11:11:01;24.30;76.60
39751;DHT22;37579;51.074;17.004;2023-02-22T11:13:38;24.30;76.60
39751;DHT22;37579;51.074;17.004;2023-02-22T11:16:29;24.30;76.80
39751;DHT22;37579;51.074;17.004;2023-02-22T11:19:18;24.20;76.70
39751;DHT22;37579;51.074;17.004;2023-02-22T11:21:53;24.20;76.70
39751;DHT22;37579;51.074;17.004;2023-02-22T11:24:22;24.20;76.70
39751;DHT22;37579;51.074;17.004;2023-02-22T11:26:58;24.20;76.70
39751;DHT22;37579;51.074;17.004;2023-02-22T11:29:34;24.10;76.70
39751;DHT22;37579;51.074;17.004;2023-02-22T11:32:12;24.10;77.40
39751;DHT22;37579;51.074;17.004;2023-02-22T11:34:40;24.10;77.20
39751;DHT22;37579;51.074;17.004;2023-02-22T11:37:31;24.10;77.30
39751;DHT22;37579;51.074;17.004;2023-02-22T11:42:32;24.00;77.30
39751;DHT22;37579;51.074;17.004;2023-02-22T11:45:16;24.00;77.40
39751;DHT22;37579;51.074;17.004;2023-02-22T11:47:57;24.00;77.60
39751;DHT22;37579;51.074;17.004;2023-02-22T11:50:33;23.80;77.80
39751;DHT22;37579;51.074;17.004;2023-02-22T11:53:08;23.90;77.80
39751;DHT22;37579;51.074;17.004;2023-02-22T12:01:25;23.90;78.50
39751;DHT22;37579;51.074;17.004;2023-02-22T12:04:30;23.90;78.90
39751;DHT22;37579;51.074;17.004;2023-02-22T12:15:16;24.00;85.00
39751;DHT22;37579;51.074;17.004;2023-02-22T12:20:56;23.90;89.20
39751;DHT22;37579;51.074;17.004;2023-02-22T12:23:33;23.90;90.10
39751;DHT22;37579;51.074;17.004;2023-02-22T12:29:00;23.90;90.20
39751;DHT22;37579;51.074;17.004;2023-02-22T12:36:42;23.80;90.50
39751;DHT22;37579;51.074;17.004;2023-02-22T12:41:57;23.80;90.60
39751;DHT22;37579;51.074;17.004;2023-02-22T12:44:36;23.90;90.90
39751;DHT22;37579;51.074;17.004;2023-02-22T14:25:49;24.70;88.40
39751;DHT22;37579;51.074;17.004;2023-02-22T14:28:47;24.80;88.40
39751;DHT22;37579;51.074;17.004;2023-02-22T14:31:17;24.80;87.60
39751;DHT22;37579;51.074;17.004;2023-02-22T14:34:18;24.80;87.90
39751;DHT22;37579;51.074;17.004;2023-02-22T14:39:19;24.90;87.40
39751;DHT22;37579;51.074;17.004;2023-02-22T14:41:57;24.90;87.10
39751;DHT22;37579;51.074;17.004;2023-02-22T14:44:33;24.90;87.40
39751;DHT22;37579;51.074;17.004;2023-02-22T14:47:03;24.90;87.30
39751;DHT22;37579;51.074;17.004;2023-02-22T14:49:34;25.00;86.70
39751;DHT22;37579;51.074;17.004;2023-02-22T14:52:06;25.00;87.00
39751;DHT22;37579;51.074;17.004;2023-02-22T14:54:48;25.00;86.80
39751;DHT22;37579;51.074;17.004;2023-02-22T14:57:24;25.00;86.60
39751;DHT22;37579;51.074;17.004;2023-02-22T15:02:49;25.00;86.90
39751;DHT22;37579;51.074;17.004;2023-02-22T15:05:18;24.90;87.30
39751;DHT22;37579;51.074;17.004;2023-02-22T15:07:57;24.80;86.80
39751;DHT22;37579;51.074;17.004;2023-02-22T15:10:47;24.80;86.80
39751;DHT22;37579;51.074;17.004;2023-02-22T15:13:23;24.80;86.50
39751;DHT22;37579;51.074;17.004;2023-02-22T15:16:03;24.90;86.20
39751;DHT22;37579;51.074;17.004;2023-02-22T15:18:46;25.00;86.50
39751;DHT22;37579;51.074;17.004;2023-02-22T15:21:15;25.00;86.10
39751;DHT22;37579;51.074;17.004;2023-02-22T15:23:48;24.90;85.70
39751;DHT22;37579;51.074;17.004;2023-02-22T15:26:41;25.00;85.70
39751;DHT22;37579;51.074;17.004;2023-02-22T15:31:35;24.80;86.00
39751;DHT22;37579;51.074;17.004;2023-02-22T15:36:44;24.80;86.50
